sensor_id;sensor_type;location;lat;lon;timestamp;P1;durP1;ratioP1;P2;durP2;ratioP2
25948;SDS011;13961;51.178;4.448;2023-03-31T00:01:58;14.38;;;2.08;;
25948;SDS011;13961;51.178;4.448;2023-03-31T00:04:26;9.48;;;1.77;;
25948;SDS011;13961;51.178;4.448;2023-03-31T00:06:56;9.80;;;2.13;;
25948;SDS011;13961;51.178;4.448;2023-03-31T00:09:21;12.65;;;2.00;;
25948;SDS011;13961;51.178;4.448;2023-03-31T00:11:48;11.00;;;2.33;;
25948;SDS011;13961;51.178;4.448;2023-03-31T00:14:14;17.10;;;2.83;;
25948;SDS011;13961;51.178;4.448;2023-03-31T00:16:42;5.78;;;1.80;;
25948;SDS011;13961;51.178;4.448;2023-03-31T00:19:08;7.38;;;1.70;;
25948;SDS011;13961;51.178;4.448;2023-03-31T00:21:42;11.73;;;2.10;;
25948;SDS011;13961;51.178;4.448;2023-03-31T00:24:15;10.57;;;2.15;;
25948;SDS011;13961;51.178;4.448;2023-03-31T00:26:42;12.50;;;2.05;;
25948;SDS011;13961;51.178;4.448;2023-03-31T00:29:08;13.38;;;1.77;;
25948;SDS011;13961;51.178;4.448;2023-03-31T00:31:36;15.63;;;2.55;;
25948;SDS011;13961;51.178;4.448;2023-03-31T00:34:03;10.43;;;2.17;;
25948;SDS011;13961;51.178;4.448;2023-03-31T00:36:30;9.20;;;1.92;;
25948;SDS011;13961;51.178;4.448;2023-03-31T00:38:57;14.57;;;1.95;;
25948;SDS011;13961;51.178;4.448;2023-03-31T00:41:33;12.65;;;2.45;;
25948;SDS011;13961;51.178;4.448;2023-03-31T00:44:13;8.70;;;2.13;;
25948;SDS011;13961;51.178;4.448;2023-03-31T00:47:05;10.90;;;2.50;;
25948;SDS011;13961;51.178;4.448;2023-03-31T00:49:39;14.20;;;2.13;;
25948;SDS011;13961;51.178;4.448;2023-03-31T00:52:14;10.60;;;1.85;;
25948;SDS011;13961;51.178;4.448;2023-03-31T00:54:55;9.52;;;2.00;;
25948;SDS011;13961;51.178;4.448;2023-03-31T00:57:23;14.40;;;1.98;;
25948;SDS011;13961;51.178;4.448;2023-03-31T00:59:52;13.02;;;2.10;;
25948;SDS011;13961;51.178;4.448;2023-03-31T01:02:22;13.68;;;2.13;;
25948;SDS011;13961;51.178;4.448;2023-03-31T01:04:50;11.52;;;2.72;;
25948;SDS011;13961;51.178;4.448;2023-03-31T01:07:21;13.80;;;1.95;;
25948;SDS011;13961;51.178;4.448;2023-03-31T01:09:56;11.38;;;1.83;;
25948;SDS011;13961;51.178;4.448;2023-03-31T01:12:24;12.18;;;1.75;;
25948;SDS011;13961;51.178;4.448;2023-03-31T01:14:51;10.65;;;1.63;;
25948;SDS011;13961;51.178;4.448;2023-03-31T01:17:18;8.95;;;1.90;;
25948;SDS011;13961;51.178;4.448;2023-03-31T01:22:58;13.00;;;2.17;;
25948;SDS011;13961;51.178;4.448;2023-03-31T01:28:28;7.15;;;1.50;;
25948;SDS011;13961;51.178;4.448;2023-03-31T01:31:13;12.50;;;1.98;;
25948;SDS011;13961;51.178;4.448;2023-03-31T01:34:10;7.68;;;1.40;;
25948;SDS011;13961;51.178;4.448;2023-03-31T01:48:19;6.97;;;1.27;;
25948;SDS011;13961;51.178;4.448;2023-03-31T01:50:58;6.47;;;1.67;;
25948;SDS011;13961;51.178;4.448;2023-03-31T01:56:27;7.47;;;1.42;;
25948;SDS011;13961;51.178;4.448;2023-03-31T02:01:56;5.90;;;1.50;;
25948;SDS011;13961;51.178;4.448;2023-03-31T02:04:47;10.82;;;1.50;;
25948;SDS011;13961;51.178;4.448;2023-03-31T02:07:33;6.03;;;1.23;;
25948;SDS011;13961;51.178;4.448;2023-03-31T02:10:03;13.50;;;1.70;;
25948;SDS011;13961;51.178;4.448;2023-03-31T02:12:32;13.15;;;1.83;;
25948;SDS011;13961;51.178;4.448;2023-03-31T02:15:00;12.90;;;2.22;;
25948;SDS011;13961;51.178;4.448;2023-03-31T02:17:31;17.00;;;2.72;;
25948;SDS011;13961;51.178;4.448;2023-03-31T02:20:04;9.88;;;2.75;;
25948;SDS011;13961;51.178;4.448;2023-03-31T02:22:37;11.85;;;2.58;;
25948;SDS011;13961;51.178;4.448;2023-03-31T02:25:07;10.55;;;2.10;;
25948;SDS011;13961;51.178;4.448;2023-03-31T02:27:39;10.82;;;2.35;;
25948;SDS011;13961;51.178;4.448;2023-03-31T02:30:07;16.45;;;3.42;;
25948;SDS011;13961;51.178;4.448;2023-03-31T02:32:38;12.40;;;2.63;;
25948;SDS011;13961;51.178;4.448;2023-03-31T02:35:12;8.27;;;2.20;;
25948;SDS011;13961;51.178;4.448;2023-03-31T02:37:42;11.90;;;2.30;;
25948;SDS011;13961;51.178;4.448;2023-03-31T02:40:10;11.75;;;2.40;;
25948;SDS011;13961;51.178;4.448;2023-03-31T02:42:40;10.88;;;2.15;;
25948;SDS011;13961;51.178;4.448;2023-03-31T02:45:34;12.60;;;1.92;;
25948;SDS011;13961;51.178;4.448;2023-03-31T02:48:08;10.68;;;2.33;;
25948;SDS011;13961;51.178;4.448;2023-03-31T02:50:45;8.07;;;1.75;;
25948;SDS011;13961;51.178;4.448;2023-03-31T03:02:54;7.85;;;1.48;;
25948;SDS011;13961;51.178;4.448;2023-03-31T03:05:35;8.77;;;1.25;;
25948;SDS011;13961;51.178;4.448;2023-03-31T03:08:16;6.78;;;1.02;;
25948;SDS011;13961;51.178;4.448;2023-03-31T03:11:12;7.05;;;1.20;;
25948;SDS011;13961;51.178;4.448;2023-03-31T03:13:42;8.57;;;1.15;;
25948;SDS011;13961;51.178;4.448;2023-03-31T03:19:01;6.90;;;1.02;;
25948;SDS011;13961;51.178;4.448;2023-03-31T03:21:30;13.02;;;1.65;;
25948;SDS011;13961;51.178;4.448;2023-03-31T03:23:56;6.15;;;1.15;;
25948;SDS011;13961;51.178;4.448;2023-03-31T03:26:23;9.63;;;1.60;;
25948;SDS011;13961;51.178;4.448;2023-03-31T03:28:52;8.57;;;1.50;;
25948;SDS011;13961;51.178;4.448;2023-03-31T03:31:19;6.28;;;1.17;;
25948;SDS011;13961;51.178;4.448;2023-03-31T03:33:48;4.15;;;1.13;;
25948;SDS011;13961;51.178;4.448;2023-03-31T03:36:14;4.90;;;1.25;;
25948;SDS011;13961;51.178;4.448;2023-03-31T03:38:41;7.57;;;1.20;;
25948;SDS011;13961;51.178;4.448;2023-03-31T03:41:07;4.53;;;1.30;;
25948;SDS011;13961;51.178;4.448;2023-03-31T03:43:32;9.68;;;1.38;;
25948;SDS011;13961;51.178;4.448;2023-03-31T03:45:58;6.85;;;1.23;;
25948;SDS011;13961;51.178;4.448;2023-03-31T03:48:24;8.63;;;1.70;;
25948;SDS011;13961;51.178;4.448;2023-03-31T03:50:50;13.32;;;1.88;;
25948;SDS011;13961;51.178;4.448;2023-03-31T03:53:17;6.82;;;1.75;;
25948;SDS011;13961;51.178;4.448;2023-03-31T03:55:43;8.50;;;1.55;;
25948;SDS011;13961;51.178;4.448;2023-03-31T03:58:09;8.63;;;1.45;;
25948;SDS011;13961;51.178;4.448;2023-03-31T04:00:35;9.38;;;2.08;;
25948;SDS011;13961;51.178;4.448;2023-03-31T04:03:01;8.55;;;1.50;;
25948;SDS011;13961;51.178;4.448;2023-03-31T04:05:28;10.38;;;2.03;;
25948;SDS011;13961;51.178;4.448;2023-03-31T04:07:54;7.97;;;1.70;;
25948;SDS011;13961;51.178;4.448;2023-03-31T04:10:19;7.60;;;2.20;;
25948;SDS011;13961;51.178;4.448;2023-03-31T04:12:45;13.68;;;2.00;;
25948;SDS011;13961;51.178;4.448;2023-03-31T04:15:11;9.82;;;1.77;;
25948;SDS011;13961;51.178;4.448;2023-03-31T04:17:36;12.15;;;1.95;;
25948;SDS011;13961;51.178;4.448;2023-03-31T04:20:03;7.05;;;1.30;;
25948;SDS011;13961;51.178;4.448;2023-03-31T04:22:32;6.53;;;1.20;;
25948;SDS011;13961;51.178;4.448;2023-03-31T04:25:04;9.38;;;1.58;;
25948;SDS011;13961;51.178;4.448;2023-03-31T04:27:39;7.18;;;1.25;;
25948;SDS011;13961;51.178;4.448;2023-03-31T04:30:14;5.18;;;1.25;;
25948;SDS011;13961;51.178;4.448;2023-03-31T04:32:55;9.05;;;1.38;;
25948;SDS011;13961;51.178;4.448;2023-03-31T04:35:23;6.32;;;1.27;;
25948;SDS011;13961;51.178;4.448;2023-03-31T04:37:51;3.22;;;1.40;;
25948;SDS011;13961;51.178;4.448;2023-03-31T04:40:23;7.90;;;1.20;;
25948;SDS011;13961;51.178;4.448;2023-03-31T04:42:49;5.50;;;1.20;;
25948;SDS011;13961;51.178;4.448;2023-03-31T04:45:15;3.53;;;0.93;;
25948;SDS011;13961;51.178;4.448;2023-03-31T04:47:41;5.88;;;1.05;;
25948;SDS011;13961;51.178;4.448;2023-03-31T04:50:07;7.50;;;1.10;;
25948;SDS011;13961;51.178;4.448;2023-03-31T04:52:35;3.58;;;1.05;;
25948;SDS011;13961;51.178;4.448;2023-03-31T04:55:01;2.80;;;0.77;;
25948;SDS011;13961;51.178;4.448;2023-03-31T04:57:27;5.53;;;0.80;;
25948;SDS011;13961;51.178;4.448;2023-03-31T04:59:52;4.32;;;0.80;;
25948;SDS011;13961;51.178;4.448;2023-03-31T05:02:18;4.15;;;0.77;;
25948;SDS011;13961;51.178;4.448;2023-03-31T05:04:49;4.63;;;0.82;;
25948;SDS011;13961;51.178;4.448;2023-03-31T05:07:16;6.15;;;1.20;;
25948;SDS011;13961;51.178;4.448;2023-03-31T05:09:45;3.10;;;0.98;;
25948;SDS011;13961;51.178;4.448;2023-03-31T05:12:11;4.45;;;1.38;;
25948;SDS011;13961;51.178;4.448;2023-03-31T05:14:37;2.72;;;1.27;;
25948;SDS011;13961;51.178;4.448;2023-03-31T05:17:02;4.05;;;1.00;;
25948;SDS011;13961;51.178;4.448;2023-03-31T05:19:28;4.50;;;1.30;;
25948;SDS011;13961;51.178;4.448;2023-03-31T05:21:54;3.60;;;1.13;;
25948;SDS011;13961;51.178;4.448;2023-03-31T05:24:20;4.28;;;1.63;;
25948;SDS011;13961;51.178;4.448;2023-03-31T05:26:46;3.33;;;1.35;;
25948;SDS011;13961;51.178;4.448;2023-03-31T05:29:17;4.78;;;1.65;;
25948;SDS011;13961;51.178;4.448;2023-03-31T05:31:43;4.82;;;1.30;;
25948;SDS011;13961;51.178;4.448;2023-03-31T05:34:09;6.88;;;1.60;;
25948;SDS011;13961;51.178;4.448;2023-03-31T05:36:34;5.90;;;1.58;;
25948;SDS011;13961;51.178;4.448;2023-03-31T05:39:02;10.23;;;1.73;;
25948;SDS011;13961;51.178;4.448;2023-03-31T05:41:28;10.63;;;1.85;;
25948;SDS011;13961;51.178;4.448;2023-03-31T05:43:54;9.65;;;1.90;;
25948;SDS011;13961;51.178;4.448;2023-03-31T05:46:20;9.00;;;1.67;;
25948;SDS011;13961;51.178;4.448;2023-03-31T05:48:46;4.32;;;1.92;;
25948;SDS011;13961;51.178;4.448;2023-03-31T05:51:11;8.48;;;2.22;;
25948;SDS011;13961;51.178;4.448;2023-03-31T05:53:37;5.07;;;2.40;;
25948;SDS011;13961;51.178;4.448;2023-03-31T05:56:04;6.05;;;3.05;;
25948;SDS011;13961;51.178;4.448;2023-03-31T05:58:33;6.05;;;2.20;;
25948;SDS011;13961;51.178;4.448;2023-03-31T06:01:01;6.32;;;2.88;;
25948;SDS011;13961;51.178;4.448;2023-03-31T06:03:38;6.30;;;3.20;;
25948;SDS011;13961;51.178;4.448;2023-03-31T06:08:44;11.90;;;2.88;;
25948;SDS011;13961;51.178;4.448;2023-03-31T06:11:11;9.38;;;2.80;;
25948;SDS011;13961;51.178;4.448;2023-03-31T06:13:46;9.23;;;2.30;;
25948;SDS011;13961;51.178;4.448;2023-03-31T06:16:12;13.88;;;2.58;;
25948;SDS011;13961;51.178;4.448;2023-03-31T06:18:41;12.13;;;2.83;;
25948;SDS011;13961;51.178;4.448;2023-03-31T06:21:09;13.35;;;2.53;;
25948;SDS011;13961;51.178;4.448;2023-03-31T06:23:38;10.18;;;2.42;;
25948;SDS011;13961;51.178;4.448;2023-03-31T06:26:05;12.38;;;2.33;;
25948;SDS011;13961;51.178;4.448;2023-03-31T06:28:33;19.52;;;2.15;;
25948;SDS011;13961;51.178;4.448;2023-03-31T06:31:07;11.25;;;2.72;;
25948;SDS011;13961;51.178;4.448;2023-03-31T06:33:38;16.33;;;2.22;;
25948;SDS011;13961;51.178;4.448;2023-03-31T06:36:05;11.77;;;2.22;;
25948;SDS011;13961;51.178;4.448;2023-03-31T06:38:35;12.90;;;2.72;;
25948;SDS011;13961;51.178;4.448;2023-03-31T06:41:06;13.40;;;2.13;;
25948;SDS011;13961;51.178;4.448;2023-03-31T06:43:32;11.60;;;2.92;;
25948;SDS011;13961;51.178;4.448;2023-03-31T06:46:00;10.98;;;2.90;;
25948;SDS011;13961;51.178;4.448;2023-03-31T06:48:26;18.08;;;2.83;;
25948;SDS011;13961;51.178;4.448;2023-03-31T06:50:58;16.35;;;2.45;;
25948;SDS011;13961;51.178;4.448;2023-03-31T06:53:25;9.02;;;2.10;;
25948;SDS011;13961;51.178;4.448;2023-03-31T06:55:51;12.50;;;2.97;;
25948;SDS011;13961;51.178;4.448;2023-03-31T06:58:17;12.10;;;2.30;;
25948;SDS011;13961;51.178;4.448;2023-03-31T07:00:43;13.57;;;2.25;;
25948;SDS011;13961;51.178;4.448;2023-03-31T07:03:19;7.82;;;2.58;;
25948;SDS011;13961;51.178;4.448;2023-03-31T07:05:49;15.15;;;2.42;;
25948;SDS011;13961;51.178;4.448;2023-03-31T07:08:16;14.77;;;2.78;;
25948;SDS011;13961;51.178;4.448;2023-03-31T07:10:53;14.38;;;2.42;;
25948;SDS011;13961;51.178;4.448;2023-03-31T07:13:21;14.50;;;3.05;;
25948;SDS011;13961;51.178;4.448;2023-03-31T07:15:47;23.17;;;2.75;;
25948;SDS011;13961;51.178;4.448;2023-03-31T07:18:14;9.88;;;2.10;;
25948;SDS011;13961;51.178;4.448;2023-03-31T07:20:41;17.92;;;2.70;;
25948;SDS011;13961;51.178;4.448;2023-03-31T07:23:07;16.80;;;2.72;;
25948;SDS011;13961;51.178;4.448;2023-03-31T07:25:33;15.90;;;2.70;;
25948;SDS011;13961;51.178;4.448;2023-03-31T07:28:03;12.55;;;2.55;;
25948;SDS011;13961;51.178;4.448;2023-03-31T07:30:30;13.95;;;3.05;;
25948;SDS011;13961;51.178;4.448;2023-03-31T07:32:57;15.13;;;2.60;;
25948;SDS011;13961;51.178;4.448;2023-03-31T07:35:23;14.90;;;2.20;;
25948;SDS011;13961;51.178;4.448;2023-03-31T07:37:49;14.15;;;2.58;;
25948;SDS011;13961;51.178;4.448;2023-03-31T07:40:17;17.17;;;2.97;;
25948;SDS011;13961;51.178;4.448;2023-03-31T07:42:48;14.75;;;2.38;;
25948;SDS011;13961;51.178;4.448;2023-03-31T07:45:18;12.80;;;2.42;;
25948;SDS011;13961;51.178;4.448;2023-03-31T07:47:45;15.48;;;2.28;;
25948;SDS011;13961;51.178;4.448;2023-03-31T07:50:11;12.23;;;2.40;;
25948;SDS011;13961;51.178;4.448;2023-03-31T07:52:38;19.30;;;3.42;;
25948;SDS011;13961;51.178;4.448;2023-03-31T07:55:04;18.80;;;2.72;;
25948;SDS011;13961;51.178;4.448;2023-03-31T07:57:31;13.57;;;2.33;;
25948;SDS011;13961;51.178;4.448;2023-03-31T07:59:56;10.07;;;2.20;;
25948;SDS011;13961;51.178;4.448;2023-03-31T08:02:24;19.95;;;2.50;;
25948;SDS011;13961;51.178;4.448;2023-03-31T08:04:50;12.80;;;2.22;;
25948;SDS011;13961;51.178;4.448;2023-03-31T08:07:16;14.95;;;2.95;;
25948;SDS011;13961;51.178;4.448;2023-03-31T08:09:42;18.42;;;3.03;;
25948;SDS011;13961;51.178;4.448;2023-03-31T08:12:09;16.00;;;2.50;;
25948;SDS011;13961;51.178;4.448;2023-03-31T08:14:35;10.77;;;2.22;;
25948;SDS011;13961;51.178;4.448;2023-03-31T08:17:00;13.48;;;2.35;;
25948;SDS011;13961;51.178;4.448;2023-03-31T08:19:27;14.32;;;2.03;;
25948;SDS011;13961;51.178;4.448;2023-03-31T08:21:53;16.30;;;2.17;;
25948;SDS011;13961;51.178;4.448;2023-03-31T08:24:19;14.98;;;2.53;;
25948;SDS011;13961;51.178;4.448;2023-03-31T08:26:45;14.25;;;2.63;;
25948;SDS011;13961;51.178;4.448;2023-03-31T08:29:11;19.70;;;3.10;;
25948;SDS011;13961;51.178;4.448;2023-03-31T08:31:37;12.10;;;2.25;;
25948;SDS011;13961;51.178;4.448;2023-03-31T08:34:03;14.73;;;2.20;;
25948;SDS011;13961;51.178;4.448;2023-03-31T08:36:29;16.58;;;2.50;;
25948;SDS011;13961;51.178;4.448;2023-03-31T08:38:55;15.43;;;2.58;;
25948;SDS011;13961;51.178;4.448;2023-03-31T08:43:50;12.88;;;2.33;;
25948;SDS011;13961;51.178;4.448;2023-03-31T08:46:18;13.50;;;2.58;;
25948;SDS011;13961;51.178;4.448;2023-03-31T08:48:54;13.40;;;2.28;;
25948;SDS011;13961;51.178;4.448;2023-03-31T08:56:57;11.45;;;1.77;;
25948;SDS011;13961;51.178;4.448;2023-03-31T09:01:59;11.52;;;2.03;;
25948;SDS011;13961;51.178;4.448;2023-03-31T09:07:13;15.77;;;2.08;;
25948;SDS011;13961;51.178;4.448;2023-03-31T09:10:02;10.80;;;2.45;;
25948;SDS011;13961;51.178;4.448;2023-03-31T09:15:42;7.53;;;1.80;;
25948;SDS011;13961;51.178;4.448;2023-03-31T09:18:18;10.32;;;1.75;;
25948;SDS011;13961;51.178;4.448;2023-03-31T09:21:19;12.85;;;2.30;;
25948;SDS011;13961;51.178;4.448;2023-03-31T09:26:59;9.13;;;1.80;;
25948;SDS011;13961;51.178;4.448;2023-03-31T09:29:37;15.90;;;1.73;;
25948;SDS011;13961;51.178;4.448;2023-03-31T09:34:44;16.63;;;2.28;;
25948;SDS011;13961;51.178;4.448;2023-03-31T09:37:11;9.93;;;1.65;;
25948;SDS011;13961;51.178;4.448;2023-03-31T09:39:38;20.58;;;2.80;;
25948;SDS011;13961;51.178;4.448;2023-03-31T09:42:05;17.80;;;2.15;;
25948;SDS011;13961;51.178;4.448;2023-03-31T09:44:42;13.27;;;2.22;;
25948;SDS011;13961;51.178;4.448;2023-03-31T09:47:20;18.65;;;2.53;;
25948;SDS011;13961;51.178;4.448;2023-03-31T09:49:55;18.08;;;2.65;;
25948;SDS011;13961;51.178;4.448;2023-03-31T09:52:26;20.52;;;2.50;;
25948;SDS011;13961;51.178;4.448;2023-03-31T09:54:58;13.98;;;2.15;;
25948;SDS011;13961;51.178;4.448;2023-03-31T09:57:30;15.05;;;2.55;;
25948;SDS011;13961;51.178;4.448;2023-03-31T10:02:39;15.88;;;2.80;;
25948;SDS011;13961;51.178;4.448;2023-03-31T10:05:23;15.45;;;2.55;;
25948;SDS011;13961;51.178;4.448;2023-03-31T10:08:54;11.60;;;2.42;;
25948;SDS011;13961;51.178;4.448;2023-03-31T10:11:14;15.63;;;2.25;;
25948;SDS011;13961;51.178;4.448;2023-03-31T10:13:44;15.43;;;2.65;;
25948;SDS011;13961;51.178;4.448;2023-03-31T10:16:22;13.32;;;2.00;;
25948;SDS011;13961;51.178;4.448;2023-03-31T10:21:44;20.95;;;2.83;;
25948;SDS011;13961;51.178;4.448;2023-03-31T10:24:16;13.43;;;2.40;;
25948;SDS011;13961;51.178;4.448;2023-03-31T10:26:45;14.63;;;2.00;;
25948;SDS011;13961;51.178;4.448;2023-03-31T10:29:18;15.77;;;2.13;;
25948;SDS011;13961;51.178;4.448;2023-03-31T10:31:49;12.52;;;2.38;;
25948;SDS011;13961;51.178;4.448;2023-03-31T10:34:16;12.70;;;2.30;;
25948;SDS011;13961;51.178;4.448;2023-03-31T10:36:45;15.38;;;2.75;;
25948;SDS011;13961;51.178;4.448;2023-03-31T10:39:12;14.07;;;2.33;;
25948;SDS011;13961;51.178;4.448;2023-03-31T10:41:41;12.15;;;2.17;;
25948;SDS011;13961;51.178;4.448;2023-03-31T10:44:22;14.23;;;2.35;;
25948;SDS011;13961;51.178;4.448;2023-03-31T10:47:02;13.27;;;2.30;;
25948;SDS011;13961;51.178;4.448;2023-03-31T10:49:36;11.82;;;2.38;;
25948;SDS011;13961;51.178;4.448;2023-03-31T10:52:08;17.75;;;2.70;;
25948;SDS011;13961;51.178;4.448;2023-03-31T10:54:46;18.23;;;2.40;;
25948;SDS011;13961;51.178;4.448;2023-03-31T10:57:12;17.00;;;2.63;;
25948;SDS011;13961;51.178;4.448;2023-03-31T11:11:18;10.50;;;2.03;;
25948;SDS011;13961;51.178;4.448;2023-03-31T11:16:55;12.60;;;2.80;;
25948;SDS011;13961;51.178;4.448;2023-03-31T11:19:48;9.73;;;2.03;;
25948;SDS011;13961;51.178;4.448;2023-03-31T11:22:37;15.70;;;2.80;;
25948;SDS011;13961;51.178;4.448;2023-03-31T11:28:10;10.07;;;1.90;;
25948;SDS011;13961;51.178;4.448;2023-03-31T11:34:00;13.10;;;1.88;;
25948;SDS011;13961;51.178;4.448;2023-03-31T11:36:43;13.13;;;1.95;;
25948;SDS011;13961;51.178;4.448;2023-03-31T11:42:02;10.43;;;1.42;;
25948;SDS011;13961;51.178;4.448;2023-03-31T11:44:37;12.45;;;1.63;;
25948;SDS011;13961;51.178;4.448;2023-03-31T11:47:08;7.43;;;1.63;;
25948;SDS011;13961;51.178;4.448;2023-03-31T11:49:40;14.02;;;1.98;;
25948;SDS011;13961;51.178;4.448;2023-03-31T11:52:32;5.93;;;1.67;;
25948;SDS011;13961;51.178;4.448;2023-03-31T11:55:01;11.15;;;1.52;;
25948;SDS011;13961;51.178;4.448;2023-03-31T12:00:33;6.05;;;1.42;;
25948;SDS011;13961;51.178;4.448;2023-03-31T12:03:21;8.65;;;1.60;;
25948;SDS011;13961;51.178;4.448;2023-03-31T12:06:05;10.73;;;1.50;;
25948;SDS011;13961;51.178;4.448;2023-03-31T12:08:57;8.43;;;1.55;;
25948;SDS011;13961;51.178;4.448;2023-03-31T12:14:36;5.20;;;1.35;;
25948;SDS011;13961;51.178;4.448;2023-03-31T12:17:11;6.95;;;1.25;;
25948;SDS011;13961;51.178;4.448;2023-03-31T12:20:01;6.30;;;1.15;;
25948;SDS011;13961;51.178;4.448;2023-03-31T12:25:04;6.18;;;1.40;;
25948;SDS011;13961;51.178;4.448;2023-03-31T12:27:41;5.60;;;1.48;;
25948;SDS011;13961;51.178;4.448;2023-03-31T12:32:35;10.00;;;1.33;;
25948;SDS011;13961;51.178;4.448;2023-03-31T12:51:50;5.78;;;1.08;;
25948;SDS011;13961;51.178;4.448;2023-03-31T12:59:30;5.78;;;1.25;;
25948;SDS011;13961;51.178;4.448;2023-03-31T13:04:37;6.78;;;1.00;;
25948;SDS011;13961;51.178;4.448;2023-03-31T13:07:03;5.82;;;0.80;;
25948;SDS011;13961;51.178;4.448;2023-03-31T13:09:46;3.55;;;0.95;;
25948;SDS011;13961;51.178;4.448;2023-03-31T13:12:21;7.40;;;1.00;;
25948;SDS011;13961;51.178;4.448;2023-03-31T13:14:49;5.75;;;1.02;;
25948;SDS011;13961;51.178;4.448;2023-03-31T13:22:42;6.43;;;0.93;;
25948;SDS011;13961;51.178;4.448;2023-03-31T13:27:57;3.50;;;0.90;;
25948;SDS011;13961;51.178;4.448;2023-03-31T13:35:38;5.60;;;0.95;;
25948;SDS011;13961;51.178;4.448;2023-03-31T13:38:09;3.88;;;0.88;;
25948;SDS011;13961;51.178;4.448;2023-03-31T13:40:48;3.45;;;0.65;;
25948;SDS011;13961;51.178;4.448;2023-03-31T13:52:00;4.65;;;0.40;;
25948;SDS011;13961;51.178;4.448;2023-03-31T13:54:34;1.98;;;0.55;;
25948;SDS011;13961;51.178;4.448;2023-03-31T13:57:21;1.02;;;0.35;;
25948;SDS011;13961;51.178;4.448;2023-03-31T14:07:55;2.75;;;0.40;;
25948;SDS011;13961;51.178;4.448;2023-03-31T14:10:30;1.80;;;0.40;;
25948;SDS011;13961;51.178;4.448;2023-03-31T14:13:04;0.30;;;0.20;;
25948;SDS011;13961;51.178;4.448;2023-03-31T14:15:34;1.23;;;0.40;;
25948;SDS011;13961;51.178;4.448;2023-03-31T14:18:03;0.80;;;0.25;;
25948;SDS011;13961;51.178;4.448;2023-03-31T14:26:04;1.73;;;0.60;;
25948;SDS011;13961;51.178;4.448;2023-03-31T14:39:34;1.67;;;0.43;;
25948;SDS011;13961;51.178;4.448;2023-03-31T14:42:05;1.45;;;0.30;;
25948;SDS011;13961;51.178;4.448;2023-03-31T14:44:39;0.43;;;0.40;;
25948;SDS011;13961;51.178;4.448;2023-03-31T14:47:13;2.00;;;0.55;;
25948;SDS011;13961;51.178;4.448;2023-03-31T14:49:40;3.30;;;0.50;;
25948;SDS011;13961;51.178;4.448;2023-03-31T14:52:17;1.80;;;0.40;;
25948;SDS011;13961;51.178;4.448;2023-03-31T14:54:45;1.85;;;0.35;;
25948;SDS011;13961;51.178;4.448;2023-03-31T14:57:54;1.05;;;0.50;;
25948;SDS011;13961;51.178;4.448;2023-03-31T15:00:03;1.25;;;0.32;;
25948;SDS011;13961;51.178;4.448;2023-03-31T15:02:36;0.77;;;0.25;;
25948;SDS011;13961;51.178;4.448;2023-03-31T15:05:05;1.30;;;0.50;;
25948;SDS011;13961;51.178;4.448;2023-03-31T15:07:35;1.77;;;0.43;;
25948;SDS011;13961;51.178;4.448;2023-03-31T15:10:02;2.95;;;0.40;;
25948;SDS011;13961;51.178;4.448;2023-03-31T15:12:29;1.25;;;0.47;;
25948;SDS011;13961;51.178;4.448;2023-03-31T15:15:04;0.82;;;0.40;;
25948;SDS011;13961;51.178;4.448;2023-03-31T15:17:35;1.05;;;0.65;;
25948;SDS011;13961;51.178;4.448;2023-03-31T15:23:20;3.17;;;1.10;;
25948;SDS011;13961;51.178;4.448;2023-03-31T15:25:58;1.38;;;0.75;;
25948;SDS011;13961;51.178;4.448;2023-03-31T15:28:37;2.17;;;0.88;;
25948;SDS011;13961;51.178;4.448;2023-03-31T15:31:08;3.95;;;1.90;;
25948;SDS011;13961;51.178;4.448;2023-03-31T15:33:34;2.63;;;0.70;;
25948;SDS011;13961;51.178;4.448;2023-03-31T15:36:05;0.80;;;0.80;;
25948;SDS011;13961;51.178;4.448;2023-03-31T15:38:35;2.78;;;0.80;;
25948;SDS011;13961;51.178;4.448;2023-03-31T15:41:01;1.23;;;0.60;;
25948;SDS011;13961;51.178;4.448;2023-03-31T15:43:41;3.25;;;1.40;;
25948;SDS011;13961;51.178;4.448;2023-03-31T15:46:15;1.70;;;0.70;;
25948;SDS011;13961;51.178;4.448;2023-03-31T15:48:48;5.85;;;2.17;;
25948;SDS011;13961;51.178;4.448;2023-03-31T15:51:24;3.75;;;1.23;;
25948;SDS011;13961;51.178;4.448;2023-03-31T15:53:55;6.80;;;1.10;;
25948;SDS011;13961;51.178;4.448;2023-03-31T15:56:27;4.70;;;1.50;;
25948;SDS011;13961;51.178;4.448;2023-03-31T15:59:01;7.05;;;1.42;;
25948;SDS011;13961;51.178;4.448;2023-03-31T16:01:32;7.22;;;1.52;;
25948;SDS011;13961;51.178;4.448;2023-03-31T16:04:05;2.20;;;0.73;;
25948;SDS011;13961;51.178;4.448;2023-03-31T16:09:08;3.53;;;1.08;;
25948;SDS011;13961;51.178;4.448;2023-03-31T16:11:41;7.60;;;1.83;;
25948;SDS011;13961;51.178;4.448;2023-03-31T16:14:19;8.63;;;1.95;;
25948;SDS011;13961;51.178;4.448;2023-03-31T16:16:55;7.57;;;1.60;;
25948;SDS011;13961;51.178;4.448;2023-03-31T16:19:31;4.43;;;1.23;;
25948;SDS011;13961;51.178;4.448;2023-03-31T16:22:10;9.02;;;2.20;;
25948;SDS011;13961;51.178;4.448;2023-03-31T16:24:42;6.72;;;2.00;;
25948;SDS011;13961;51.178;4.448;2023-03-31T16:27:10;7.40;;;1.77;;
25948;SDS011;13961;51.178;4.448;2023-03-31T16:29:36;7.43;;;1.40;;
25948;SDS011;13961;51.178;4.448;2023-03-31T16:32:12;9.65;;;1.52;;
25948;SDS011;13961;51.178;4.448;2023-03-31T16:34:59;6.65;;;1.17;;
25948;SDS011;13961;51.178;4.448;2023-03-31T16:37:27;6.80;;;1.10;;
25948;SDS011;13961;51.178;4.448;2023-03-31T16:39:53;8.52;;;1.27;;
25948;SDS011;13961;51.178;4.448;2023-03-31T16:42:20;5.95;;;1.25;;
25948;SDS011;13961;51.178;4.448;2023-03-31T16:44:46;8.88;;;1.75;;
25948;SDS011;13961;51.178;4.448;2023-03-31T16:47:12;7.35;;;1.80;;
25948;SDS011;13961;51.178;4.448;2023-03-31T16:49:38;5.60;;;1.20;;
25948;SDS011;13961;51.178;4.448;2023-03-31T16:52:04;7.97;;;1.38;;
25948;SDS011;13961;51.178;4.448;2023-03-31T16:54:31;6.80;;;1.20;;
25948;SDS011;13961;51.178;4.448;2023-03-31T16:56:58;6.22;;;2.03;;
25948;SDS011;13961;51.178;4.448;2023-03-31T16:59:23;4.85;;;1.15;;
25948;SDS011;13961;51.178;4.448;2023-03-31T17:01:49;5.53;;;1.88;;
25948;SDS011;13961;51.178;4.448;2023-03-31T17:04:16;5.55;;;1.45;;
25948;SDS011;13961;51.178;4.448;2023-03-31T17:06:42;4.78;;;1.40;;
25948;SDS011;13961;51.178;4.448;2023-03-31T17:09:08;6.70;;;1.80;;
25948;SDS011;13961;51.178;4.448;2023-03-31T17:11:34;6.85;;;1.27;;
25948;SDS011;13961;51.178;4.448;2023-03-31T17:14:00;7.95;;;1.40;;
25948;SDS011;13961;51.178;4.448;2023-03-31T17:16:26;8.25;;;1.42;;
25948;SDS011;13961;51.178;4.448;2023-03-31T17:18:52;5.75;;;1.38;;
25948;SDS011;13961;51.178;4.448;2023-03-31T17:21:18;5.60;;;1.35;;
25948;SDS011;13961;51.178;4.448;2023-03-31T17:23:44;5.13;;;1.17;;
25948;SDS011;13961;51.178;4.448;2023-03-31T17:26:10;6.38;;;1.35;;
25948;SDS011;13961;51.178;4.448;2023-03-31T17:28:36;6.78;;;1.20;;
25948;SDS011;13961;51.178;4.448;2023-03-31T17:31:09;8.00;;;1.20;;
25948;SDS011;13961;51.178;4.448;2023-03-31T17:33:42;5.85;;;1.23;;
25948;SDS011;13961;51.178;4.448;2023-03-31T17:36:09;6.80;;;1.30;;
25948;SDS011;13961;51.178;4.448;2023-03-31T17:38:35;9.80;;;1.65;;
25948;SDS011;13961;51.178;4.448;2023-03-31T17:41:04;6.63;;;1.48;;
25948;SDS011;13961;51.178;4.448;2023-03-31T17:43:31;12.23;;;1.63;;
25948;SDS011;13961;51.178;4.448;2023-03-31T17:46:02;7.75;;;2.10;;
25948;SDS011;13961;51.178;4.448;2023-03-31T17:48:30;11.02;;;1.83;;
25948;SDS011;13961;51.178;4.448;2023-03-31T17:51:08;8.13;;;1.40;;
25948;SDS011;13961;51.178;4.448;2023-03-31T17:53:37;12.05;;;1.58;;
25948;SDS011;13961;51.178;4.448;2023-03-31T17:56:04;6.97;;;1.65;;
25948;SDS011;13961;51.178;4.448;2023-03-31T17:58:30;10.77;;;1.83;;
25948;SDS011;13961;51.178;4.448;2023-03-31T18:00:57;11.10;;;2.10;;